createdAt,value
2022-08-03T00:00:54.967Z,17.95
2022-08-03T00:06:03.532Z,17.81
2022-08-03T00:11:07.494Z,17.76
2022-08-03T00:16:13.243Z,17.69
2022-08-03T00:21:15.801Z,17.72
2022-08-03T00:26:18.390Z,17.73
2022-08-03T00:31:32.217Z,17.62
2022-08-03T00:36:44.797Z,17.54
2022-08-03T00:41:47.294Z,17.50
2022-08-03T00:46:51.164Z,17.50
2022-08-03T00:51:53.809Z,17.45
2022-08-03T00:56:59.973Z,17.43
2022-08-03T01:02:04.481Z,17.42
2022-08-03T01:07:14.979Z,17.42
2022-08-03T01:12:26.215Z,17.39
2022-08-03T01:17:36.772Z,17.42
2022-08-03T01:23:04.274Z,17.46
2022-08-03T01:28:26.434Z,17.45
2022-08-03T01:33:37.194Z,17.39
2022-08-03T01:38:44.378Z,17.30
2022-08-03T01:44:26.608Z,17.12
2022-08-03T01:49:15.252Z,16.97
2022-08-03T01:54:19.222Z,16.90
2022-08-03T01:59:23.096Z,16.76
2022-08-03T02:04:29.200Z,16.58
2022-08-03T02:09:32.889Z,16.50
2022-08-03T02:14:36.580Z,16.41
2022-08-03T02:19:41.547Z,16.34
2022-08-03T02:24:49.275Z,16.27
2022-08-03T02:30:01.398Z,16.16
2022-08-03T02:35:10.724Z,16.11
2022-08-03T02:40:16.091Z,16.03
2022-08-03T02:45:21.290Z,15.96
2022-08-03T02:50:27.517Z,15.89
2022-08-03T02:55:31.427Z,15.81
2022-08-03T03:00:34.435Z,15.76
2022-08-03T03:05:56.336Z,15.71
2022-08-03T03:11:01.713Z,15.72
2022-08-03T03:16:07.013Z,15.67
2022-08-03T03:21:11.731Z,15.62
2022-08-03T03:26:15.661Z,15.57
2022-08-03T03:31:18.225Z,15.62
2022-08-03T03:36:22.255Z,15.56
2022-08-03T03:41:25.166Z,15.56
2022-08-03T03:46:27.886Z,15.56
2022-08-03T03:51:31.928Z,15.49
2022-08-03T03:56:35.026Z,15.49
2022-08-03T04:01:37.543Z,15.45
2022-08-03T04:06:59.002Z,15.40
2022-08-03T04:12:03.516Z,15.40
2022-08-03T04:17:10.258Z,15.47
2022-08-03T04:22:18.606Z,15.55
2022-08-03T04:27:24.233Z,15.65
2022-08-03T04:32:28.704Z,15.98
2022-08-03T04:37:39.531Z,16.30
2022-08-03T04:42:43.976Z,16.61
2022-08-03T04:47:46.803Z,16.94
2022-08-03T04:52:51.408Z,17.12
2022-08-03T04:57:54.073Z,17.32
2022-08-03T05:02:56.718Z,17.54
2022-08-03T05:08:00.831Z,17.91
2022-08-03T05:13:06.027Z,18.42
2022-08-03T05:18:13.522Z,19.17
2022-08-03T05:23:18.178Z,20.08
2022-08-03T05:28:20.808Z,21.29
2022-08-03T05:33:23.328Z,22.19
2022-08-03T05:38:28.678Z,21.85
2022-08-03T05:43:36.979Z,21.67
2022-08-03T05:48:42.409Z,21.46
2022-08-03T05:53:46.404Z,21.31
2022-08-03T05:58:48.964Z,21.28
2022-08-03T06:03:52.031Z,21.10
2022-08-03T06:08:55.794Z,21.22
2022-08-03T06:13:58.208Z,21.34
2022-08-03T06:19:00.575Z,21.63
2022-08-03T06:24:04.462Z,24.46
2022-08-03T06:29:08.903Z,26.39
2022-08-03T06:34:34.225Z,26.76
2022-08-03T06:39:36.102Z,26.50
2022-08-03T06:44:38.696Z,26.69
2022-08-03T06:49:41.520Z,27.32
2022-08-03T06:54:45.331Z,27.41
2022-08-03T07:00:10.527Z,28.31
2022-08-03T07:05:10.898Z,28.26
2022-08-03T07:10:14.635Z,27.52
2022-08-03T07:15:20.141Z,27.27
2022-08-03T07:20:23.182Z,28.15
2022-08-03T07:25:26.956Z,28.96
2022-08-03T07:30:29.626Z,29.42
2022-08-03T07:35:32.043Z,29.30
2022-08-03T07:40:35.768Z,29.19
2022-08-03T07:45:38.175Z,29.00
2022-08-03T07:50:40.707Z,30.19
2022-08-03T07:55:44.505Z,31.41
2022-08-03T08:00:46.895Z,32.44
2022-08-03T08:05:49.390Z,32.28
2022-08-03T08:10:58.450Z,30.17
2022-08-03T08:16:01.298Z,30.55
2022-08-03T08:21:03.758Z,31.53
2022-08-03T08:26:07.978Z,32.03
2022-08-03T08:31:10.576Z,32.86
2022-08-03T08:36:15.385Z,32.53
2022-08-03T08:41:19.552Z,32.02
2022-08-03T08:46:22.940Z,32.60
2022-08-03T08:51:59.047Z,33.34
2022-08-03T08:56:54.391Z,34.29
2022-08-03T09:01:58.211Z,34.28
2022-08-03T09:07:19.105Z,34.11
2022-08-03T09:12:42.367Z,33.44
2022-08-03T09:17:48.968Z,34.10
2022-08-03T09:22:54.709Z,33.81
2022-08-03T09:28:04.809Z,33.33
2022-08-03T09:33:08.770Z,33.76
2022-08-03T09:38:14.186Z,33.60
2022-08-03T09:43:18.326Z,32.93
2022-08-03T09:48:27.587Z,33.76
2022-08-03T09:53:30.038Z,33.63
2022-08-03T09:58:33.767Z,34.72
2022-08-03T10:04:04.179Z,34.74
2022-08-03T10:09:07.545Z,34.68
2022-08-03T10:14:18.655Z,34.75
2022-08-03T10:19:21.116Z,34.61
2022-08-03T10:24:25.996Z,34.69
2022-08-03T10:29:30.546Z,34.65
2022-08-03T10:34:35.871Z,34.36
2022-08-03T10:39:38.286Z,34.61
2022-08-03T10:44:43.214Z,35.52
2022-08-03T10:49:46.701Z,35.89
2022-08-03T10:55:07.311Z,35.01
2022-08-03T11:00:14.050Z,35.39
2022-08-03T11:05:29.601Z,34.80
2022-08-03T11:10:32.622Z,34.36
2022-08-03T11:15:36.577Z,34.81
2022-08-03T11:20:44.965Z,34.95
2022-08-03T11:26:06.288Z,35.21
2022-08-03T11:31:48.864Z,35.67
2022-08-03T11:37:08.816Z,34.63
2022-08-03T11:42:29.986Z,35.28
2022-08-03T11:47:37.455Z,35.36
2022-08-03T11:52:53.806Z,34.40
2022-08-03T11:59:00.851Z,35.20
2022-08-03T12:03:23.383Z,35.38
2022-08-03T12:08:32.667Z,35.42
2022-08-03T12:14:08.816Z,35.15
2022-08-03T12:19:03.567Z,35.36
2022-08-03T12:24:06.436Z,35.07
2022-08-03T12:29:08.871Z,35.33
2022-08-03T12:34:13.578Z,35.23
2022-08-03T12:39:16.018Z,35.80
2022-08-03T12:44:18.513Z,36.17
2022-08-03T12:49:22.465Z,35.72
2022-08-03T12:54:25.829Z,35.65
2022-08-03T12:59:32.376Z,35.62
2022-08-03T13:04:38.834Z,35.51
2022-08-03T13:09:44.852Z,35.70
2022-08-03T13:14:48.374Z,35.67
2022-08-03T13:19:52.535Z,34.69
2022-08-03T13:24:57.389Z,35.13
2022-08-03T13:30:00.031Z,34.83
2022-08-03T13:35:05.474Z,34.91
2022-08-03T13:40:09.050Z,35.49
2022-08-03T13:45:14.168Z,35.45
2022-08-03T13:50:18.048Z,35.47
2022-08-03T13:55:20.490Z,35.44
2022-08-03T14:00:27.455Z,35.68
2022-08-03T14:05:32.751Z,35.19
2022-08-03T14:10:35.834Z,34.54
2022-08-03T14:15:38.776Z,34.20
2022-08-03T14:20:50.047Z,34.24
2022-08-03T14:25:54.318Z,34.84
2022-08-03T14:30:56.909Z,34.33
2022-08-03T14:36:00.679Z,33.95
2022-08-03T14:41:03.099Z,33.41
2022-08-03T14:46:06.996Z,34.06
2022-08-03T14:51:10.774Z,34.70
2022-08-03T14:56:13.216Z,33.99
2022-08-03T15:02:04.828Z,33.80
2022-08-03T15:06:39.659Z,33.98
2022-08-03T15:11:42.280Z,33.90
2022-08-03T15:16:44.713Z,33.81
2022-08-03T15:21:48.593Z,33.93
2022-08-03T15:26:51.561Z,33.75
2022-08-03T15:31:53.977Z,34.13
2022-08-03T15:36:57.834Z,34.37
2022-08-03T15:42:00.228Z,34.04
2022-08-03T15:47:02.705Z,34.03
2022-08-03T15:52:06.845Z,34.59
2022-08-03T15:57:09.268Z,34.07
2022-08-03T16:02:11.723Z,34.51
2022-08-03T16:07:16.247Z,34.14
2022-08-03T16:12:18.742Z,33.97
2022-08-03T16:17:21.775Z,33.67
2022-08-03T16:22:26.125Z,33.34
2022-08-03T16:27:56.890Z,33.48
2022-08-03T16:32:51.247Z,33.47
2022-08-03T16:37:56.429Z,33.25
2022-08-03T16:42:59.515Z,33.51
2022-08-03T16:48:05.503Z,33.51
2022-08-03T16:53:16.499Z,33.08
2022-08-03T16:58:34.253Z,33.25
2022-08-03T17:03:57.059Z,32.99
2022-08-03T17:09:09.208Z,32.29
2022-08-03T17:14:12.551Z,31.78
2022-08-03T17:19:15.414Z,31.87
2022-08-03T17:24:28.254Z,31.87
2022-08-03T17:29:34.878Z,31.20
2022-08-03T17:34:38.334Z,30.68
2022-08-03T17:39:59.920Z,30.63
2022-08-03T17:45:03.825Z,30.85
2022-08-03T17:50:23.359Z,30.61
2022-08-03T17:55:56.044Z,30.13
2022-08-03T18:02:00.869Z,29.67
2022-08-03T18:06:36.418Z,29.32
2022-08-03T18:11:43.149Z,29.12
2022-08-03T18:16:57.190Z,28.94
2022-08-03T18:22:03.520Z,28.85
2022-08-03T18:27:10.639Z,28.70
2022-08-03T18:32:16.897Z,28.52
2022-08-03T18:37:24.513Z,28.33
2022-08-03T18:42:28.873Z,28.13
2022-08-03T18:47:53.153Z,27.96
2022-08-03T18:52:59.567Z,27.74
2022-08-03T18:58:17.877Z,27.49
2022-08-03T19:03:24.161Z,27.12
2022-08-03T19:08:29.554Z,26.82
2022-08-03T19:13:40.362Z,26.51
2022-08-03T19:18:50.486Z,26.18
2022-08-03T19:23:55.483Z,25.87
2022-08-03T19:28:59.713Z,25.55
2022-08-03T19:34:03.446Z,25.23
2022-08-03T19:39:08.981Z,24.87
2022-08-03T19:44:12.792Z,24.60
2022-08-03T19:49:57.699Z,24.34
2022-08-03T19:54:53.058Z,24.12
2022-08-03T19:59:57.488Z,23.94
2022-08-03T20:05:01.617Z,23.78
2022-08-03T20:10:05.841Z,23.66
2022-08-03T20:15:10.758Z,23.62
2022-08-03T20:20:16.537Z,23.55
2022-08-03T20:25:23.424Z,23.48
2022-08-03T20:30:42.583Z,23.40
2022-08-03T20:35:49.401Z,23.36
2022-08-03T20:40:52.142Z,23.26
2022-08-03T20:46:01.103Z,23.13
2022-08-03T20:51:49.061Z,22.98
2022-08-03T20:56:42.122Z,22.89
2022-08-03T21:01:52.127Z,22.80
2022-08-03T21:07:00.661Z,22.65
2022-08-03T21:12:07.273Z,22.47
2022-08-03T21:17:19.423Z,22.31
2022-08-03T21:22:37.834Z,22.22
2022-08-03T21:27:41.105Z,22.10
2022-08-03T21:32:45.375Z,21.97
2022-08-03T21:38:10.625Z,21.88
2022-08-03T21:43:13.036Z,21.75
2022-08-03T21:48:16.190Z,21.70
2022-08-03T21:53:20.229Z,21.59
2022-08-03T21:58:27.891Z,21.47
2022-08-03T22:03:32.067Z,21.38
2022-08-03T22:08:55.770Z,21.27
2022-08-03T22:13:58.153Z,21.19
2022-08-03T22:19:00.587Z,21.07
2022-08-03T22:24:05.560Z,20.93
2022-08-03T22:29:08.567Z,20.87
2022-08-03T22:34:11.109Z,20.84
2022-08-03T22:39:25.505Z,20.74
2022-08-03T22:44:28.761Z,20.69
2022-08-03T22:49:31.982Z,20.56
2022-08-03T22:54:36.297Z,20.53
2022-08-03T22:59:42.043Z,20.52
2022-08-03T23:04:45.324Z,20.42
2022-08-03T23:09:49.752Z,20.35
2022-08-03T23:14:54.025Z,20.34
2022-08-03T23:19:57.063Z,20.35
2022-08-03T23:25:03.532Z,20.37
2022-08-03T23:30:06.610Z,20.33
2022-08-03T23:36:29.698Z,20.31
2022-08-03T23:40:51.214Z,20.27
2022-08-03T23:45:55.986Z,20.43
2022-08-03T23:51:00.213Z,20.49
2022-08-03T23:56:13.803Z,20.45
